Time;durP1;ratioP1;P1;durP2;ratioP2;P2;SDS_P1;SDS_P2;PMS_P1;PMS_P2;Temp;Humidity;BMP_temperature;BMP_pressure;BME280_temperature;BME280_humidity;BME280_pressure;Samples;Min_cycle;Max_cycle;Signal;HPM_P1;HPM_P2
2023/03/17 00:00:54;;;;;;;;;;;5.30;99.90;;;;;;4967212;28;19965;-86
2023/03/17 00:03:23;;;;;;;;;;;5.30;99.90;;;;;;4968034;28;19949;-86
2023/03/17 00:05:50;;;;;;;;;;;5.30;99.90;;;;;;4969585;28;20000;-86
2023/03/17 00:08:20;;;;;;;;;;;5.20;99.90;;;;;;4982651;28;19926;-86
2023/03/17 00:10:47;;;;;;;;;;;5.20;99.90;;;;;;4979641;28;20413;-87
2023/03/17 00:13:16;;;;;;;;;;;5.20;99.90;;;;;;4967197;28;19930;-86
2023/03/17 00:15:43;;;;;;;;;;;5.20;99.90;;;;;;4971295;28;19934;-87
2023/03/17 00:18:11;;;;;;;;;;;5.20;99.90;;;;;;4979160;28;20045;-87
2023/03/17 00:20:38;;;;;;;;;;;5.20;99.90;;;;;;4963828;28;21479;-86
2023/03/17 00:23:05;;;;;;;;;;;5.20;99.90;;;;;;4975956;28;20443;-86
2023/03/17 00:25:34;;;;;;;;;;;5.20;99.90;;;;;;4967884;28;19933;-86
2023/03/17 00:28:02;;;;;;;;;;;5.20;99.90;;;;;;4975790;28;20017;-86
2023/03/17 00:30:30;;;;;;;;;;;5.10;99.90;;;;;;4959485;28;20300;-87
2023/03/17 00:32:58;;;;;;;;;;;5.10;99.90;;;;;;4962860;28;19930;-86
2023/03/17 00:35:27;;;;;;;;;;;5.10;99.90;;;;;;4988126;28;20021;-86
2023/03/17 00:37:55;;;;;;;;;;;5.10;99.90;;;;;;4982030;28;19927;-88
2023/03/17 00:40:23;;;;;;;;;;;5.10;99.90;;;;;;4990986;28;19965;-87
2023/03/17 00:42:51;;;;;;;;;;;5.10;99.90;;;;;;5002479;28;20360;-88
2023/03/17 00:45:18;;;;;;;;;;;5.10;99.90;;;;;;4993566;28;19933;-86
2023/03/17 00:47:46;;;;;;;;;;;5.10;99.90;;;;;;4987361;28;19930;-86
2023/03/17 00:50:15;;;;;;;;;;;5.00;99.90;;;;;;4988401;28;19930;-86
2023/03/17 00:52:43;;;;;;;;;;;5.00;99.90;;;;;;4978518;28;19942;-88
2023/03/17 00:55:10;;;;;;;;;;;5.00;99.90;;;;;;4973029;28;19934;-86
2023/03/17 00:57:37;;;;;;;;;;;5.00;99.90;;;;;;4986258;28;19985;-86
2023/03/17 01:00:05;;;;;;;;;;;5.00;99.90;;;;;;4976641;28;19930;-87
2023/03/17 01:02:32;;;;;;;;;;;5.00;99.90;;;;;;4974105;28;19950;-86
2023/03/17 01:05:01;;;;;;;;;;;5.00;99.90;;;;;;4971043;28;19926;-86
2023/03/17 01:07:29;;;;;;;;;;;5.00;99.90;;;;;;4978259;28;20712;-86
2023/03/17 01:09:56;;;;;;;;;;;5.00;99.90;;;;;;4986270;28;20013;-86
2023/03/17 01:12:23;;;;;;;;;;;4.90;99.90;;;;;;4992138;28;19932;-86
2023/03/17 01:14:51;;;;;;;;;;;4.90;99.90;;;;;;4976809;28;19937;-86
2023/03/17 01:17:18;;;;;;;;;;;4.90;99.90;;;;;;4986478;28;20378;-86
2023/03/17 01:19:45;;;;;;;;;;;4.90;99.90;;;;;;4991354;28;19926;-87
2023/03/17 01:22:14;;;;;;;;;;;4.90;99.90;;;;;;4984012;28;19934;-86
2023/03/17 01:24:41;;;;;;;;;;;4.90;99.90;;;;;;4971716;28;20468;-85
2023/03/17 01:27:07;;;;;;;;;;;4.90;99.90;;;;;;4986238;28;19978;-86
2023/03/17 01:29:35;;;;;;;;;;;4.90;99.90;;;;;;4973995;28;20428;-86
2023/03/17 01:32:02;;;;;;;;;;;4.90;99.90;;;;;;4973500;28;20029;-87
2023/03/17 01:34:29;;;;;;;;;;;4.80;99.90;;;;;;4980494;28;19932;-86
2023/03/17 01:36:56;;;;;;;;;;;4.80;99.90;;;;;;4963615;28;19933;-86
2023/03/17 01:39:26;;;;;;;;;;;4.80;99.90;;;;;;4985781;28;19933;-86
2023/03/17 01:41:55;;;;;;;;;;;4.80;99.90;;;;;;4986207;28;19930;-86
2023/03/17 01:44:22;;;;;;;;;;;4.80;99.90;;;;;;4968915;28;19993;-86
2023/03/17 01:46:50;;;;;;;;;;;4.80;99.90;;;;;;4986295;28;19930;-86
2023/03/17 01:49:19;;;;;;;;;;;4.80;99.90;;;;;;4989749;28;19941;-86
2023/03/17 01:51:51;;;;;;;;;;;4.80;99.90;;;;;;4990532;28;20468;-86
2023/03/17 01:54:22;;;;;;;;;;;4.70;99.90;;;;;;4981049;28;20029;-86
2023/03/17 01:56:51;;;;;;;;;;;4.70;99.90;;;;;;4980545;28;19926;-86
2023/03/17 01:59:20;;;;;;;;;;;4.70;99.90;;;;;;4985739;28;19954;-87
2023/03/17 02:01:48;;;;;;;;;;;4.70;99.90;;;;;;4982096;28;19934;-86
2023/03/17 02:04:16;;;;;;;;;;;4.70;99.90;;;;;;4969343;28;19926;-86
2023/03/17 02:06:43;;;;;;;;;;;4.70;99.90;;;;;;4987336;28;20040;-87
2023/03/17 02:09:11;;;;;;;;;;;4.70;99.90;;;;;;4971719;28;19937;-87
2023/03/17 02:11:38;;;;;;;;;;;4.70;99.90;;;;;;4990829;28;19950;-86
2023/03/17 02:14:11;;;;;;;;;;;4.60;99.90;;;;;;4987324;28;19926;-87
2023/03/17 02:16:37;;;;;;;;;;;4.60;99.90;;;;;;4985367;28;20479;-86
2023/03/17 02:19:04;;;;;;;;;;;4.60;99.90;;;;;;4988202;28;19930;-86
2023/03/17 02:21:37;;;;;;;;;;;4.60;99.90;;;;;;4977142;28;19930;-86
2023/03/17 02:24:07;;;;;;;;;;;4.60;99.90;;;;;;4983227;28;19930;-86
2023/03/17 02:26:36;;;;;;;;;;;4.60;99.90;;;;;;4973241;28;19926;-86
2023/03/17 02:29:04;;;;;;;;;;;4.60;99.90;;;;;;4970436;28;19938;-86
2023/03/17 02:31:31;;;;;;;;;;;4.60;99.90;;;;;;4981834;28;20440;-86
2023/03/17 02:33:59;;;;;;;;;;;4.60;99.90;;;;;;4986225;28;19925;-87
2023/03/17 02:36:27;;;;;;;;;;;4.60;99.90;;;;;;4990846;28;19947;-87
2023/03/17 02:38:56;;;;;;;;;;;4.50;99.90;;;;;;4982753;28;19972;-86
2023/03/17 02:41:23;;;;;;;;;;;4.50;99.90;;;;;;4985061;28;20293;-88
2023/03/17 02:43:50;;;;;;;;;;;4.50;99.90;;;;;;4976166;28;19934;-86
2023/03/17 02:46:17;;;;;;;;;;;4.50;99.90;;;;;;4970657;28;20431;-87
2023/03/17 02:48:45;;;;;;;;;;;4.50;99.90;;;;;;4965615;28;19927;-86
2023/03/17 02:51:12;;;;;;;;;;;4.50;99.90;;;;;;4971060;28;19927;-86
2023/03/17 02:53:39;;;;;;;;;;;4.50;99.90;;;;;;4971710;28;19962;-86
2023/03/17 02:56:07;;;;;;;;;;;4.60;99.90;;;;;;4967248;28;20423;-87
2023/03/17 02:58:34;;;;;;;;;;;4.50;99.90;;;;;;4978722;28;19962;-86
2023/03/17 03:01:02;;;;;;;;;;;4.50;99.90;;;;;;4973073;28;20447;-86
2023/03/17 03:03:29;;;;;;;;;;;4.50;99.90;;;;;;4977258;28;20376;-86
2023/03/17 03:05:57;;;;;;;;;;;4.50;99.90;;;;;;4968919;28;20460;-87
2023/03/17 03:08:24;;;;;;;;;;;4.50;99.90;;;;;;4972568;28;20276;-87
2023/03/17 03:10:51;;;;;;;;;;;4.40;99.90;;;;;;4972623;28;19929;-87
2023/03/17 03:13:19;;;;;;;;;;;4.40;99.90;;;;;;4993900;28;20240;-87
2023/03/17 03:15:47;;;;;;;;;;;4.40;99.90;;;;;;4994251;28;20347;-87
2023/03/17 03:18:14;;;;;;;;;;;4.40;99.90;;;;;;4986266;28;20370;-85
2023/03/17 03:20:42;;;;;;;;;;;4.40;99.90;;;;;;4962722;28;19946;-87
2023/03/17 03:23:08;;;;;;;;;;;4.40;99.90;;;;;;4990089;28;19927;-86
2023/03/17 03:25:38;;;;;;;;;;;4.40;99.90;;;;;;4973720;28;20924;-86
2023/03/17 03:28:06;;;;;;;;;;;4.40;99.90;;;;;;4971752;28;19930;-86
2023/03/17 03:30:37;;;;;;;;;;;4.40;99.90;;;;;;4967434;28;19930;-86
2023/03/17 03:33:04;;;;;;;;;;;4.40;99.90;;;;;;4969266;28;19958;-85
2023/03/17 03:35:30;;;;;;;;;;;4.40;99.90;;;;;;4966876;28;19976;-86
2023/03/17 03:37:57;;;;;;;;;;;4.40;99.90;;;;;;4985734;28;19926;-87
2023/03/17 03:40:25;;;;;;;;;;;4.30;99.90;;;;;;4986998;28;19954;-86
2023/03/17 03:42:51;;;;;;;;;;;4.30;99.90;;;;;;4981642;28;20370;-86
2023/03/17 03:45:18;;;;;;;;;;;4.40;99.90;;;;;;4994271;28;20053;-86
2023/03/17 03:47:47;;;;;;;;;;;4.40;99.90;;;;;;4989599;28;19926;-86
2023/03/17 03:50:13;;;;;;;;;;;4.30;99.90;;;;;;4970526;28;19937;-87
2023/03/17 03:52:40;;;;;;;;;;;4.30;99.90;;;;;;4972005;28;19930;-86
2023/03/17 03:55:08;;;;;;;;;;;4.30;99.90;;;;;;4974509;28;19933;-87
2023/03/17 03:57:35;;;;;;;;;;;4.30;99.90;;;;;;4995143;28;20455;-87
2023/03/17 04:00:06;;;;;;;;;;;4.30;99.90;;;;;;4970868;28;19930;-87
2023/03/17 04:02:38;;;;;;;;;;;4.30;99.90;;;;;;4974088;28;19926;-86
2023/03/17 04:05:08;;;;;;;;;;;4.30;99.90;;;;;;4976759;28;20426;-86
2023/03/17 04:07:34;;;;;;;;;;;4.30;99.90;;;;;;4972747;28;20401;-86
2023/03/17 04:10:01;;;;;;;;;;;4.30;99.90;;;;;;4975705;28;19958;-87
2023/03/17 04:12:29;;;;;;;;;;;4.20;99.90;;;;;;4979141;28;19933;-86
2023/03/17 04:14:56;;;;;;;;;;;4.20;99.90;;;;;;4978535;28;19926;-86
2023/03/17 04:17:22;;;;;;;;;;;4.20;99.90;;;;;;4979299;28;19956;-87
2023/03/17 04:19:50;;;;;;;;;;;4.20;99.90;;;;;;4986833;28;19933;-86
2023/03/17 04:22:18;;;;;;;;;;;4.20;99.90;;;;;;4989084;28;19937;-86
2023/03/17 04:24:45;;;;;;;;;;;4.20;99.90;;;;;;4983449;28;19925;-86
2023/03/17 04:27:14;;;;;;;;;;;4.20;99.90;;;;;;4987722;28;19949;-86
2023/03/17 04:29:41;;;;;;;;;;;4.20;99.90;;;;;;4994901;28;19949;-86
2023/03/17 04:32:08;;;;;;;;;;;4.20;99.90;;;;;;4975493;28;19926;-87
2023/03/17 04:34:35;;;;;;;;;;;4.20;99.90;;;;;;4987422;28;19981;-88
2023/03/17 04:37:03;;;;;;;;;;;4.20;99.90;;;;;;5006080;28;19993;-87
2023/03/17 04:39:31;;;;;;;;;;;4.20;99.90;;;;;;4990004;28;19926;-87
2023/03/17 04:41:58;;;;;;;;;;;4.20;99.90;;;;;;4988432;28;20025;-87
2023/03/17 04:44:25;;;;;;;;;;;4.20;99.90;;;;;;4969494;28;19930;-86
2023/03/17 04:46:52;;;;;;;;;;;4.20;99.90;;;;;;4975629;28;20043;-88
2023/03/17 04:49:20;;;;;;;;;;;4.10;99.90;;;;;;4966633;28;19927;-86
2023/03/17 04:51:47;;;;;;;;;;;4.10;99.90;;;;;;4988398;28;20269;-87
2023/03/17 04:54:15;;;;;;;;;;;4.10;99.90;;;;;;4968666;28;19957;-86
2023/03/17 04:56:45;;;;;;;;;;;4.10;99.90;;;;;;4961986;28;19935;-84
2023/03/17 04:59:13;;;;;;;;;;;4.10;99.90;;;;;;4976389;28;19973;-86
2023/03/17 05:01:39;;;;;;;;;;;4.10;99.90;;;;;;4983259;28;20022;-87
2023/03/17 05:04:08;;;;;;;;;;;4.00;99.90;;;;;;4972599;28;20050;-87
2023/03/17 05:06:36;;;;;;;;;;;4.10;99.90;;;;;;4990877;28;20007;-87
2023/03/17 05:09:03;;;;;;;;;;;4.10;99.90;;;;;;4984585;28;19934;-87
2023/03/17 05:11:31;;;;;;;;;;;4.10;99.90;;;;;;4972464;28;19958;-87
2023/03/17 05:13:59;;;;;;;;;;;4.00;99.90;;;;;;4973363;28;19958;-87
2023/03/17 05:16:26;;;;;;;;;;;4.00;99.90;;;;;;4984668;28;19982;-87
2023/03/17 05:18:54;;;;;;;;;;;4.00;99.90;;;;;;4990624;28;19926;-87
2023/03/17 05:21:21;;;;;;;;;;;4.00;99.90;;;;;;4983142;28;19926;-87
2023/03/17 05:23:48;;;;;;;;;;;4.00;99.90;;;;;;4970391;28;19946;-87
2023/03/17 05:26:15;;;;;;;;;;;4.00;99.90;;;;;;4990651;28;19961;-87
2023/03/17 05:28:42;;;;;;;;;;;4.00;99.90;;;;;;4973345;28;19992;-87
2023/03/17 05:31:11;;;;;;;;;;;4.00;99.90;;;;;;4970153;28;20401;-87
2023/03/17 05:33:38;;;;;;;;;;;4.00;99.90;;;;;;4974378;28;19934;-87
2023/03/17 05:36:05;;;;;;;;;;;4.00;99.90;;;;;;4975196;28;20424;-86
2023/03/17 05:38:32;;;;;;;;;;;3.90;99.90;;;;;;4994314;28;20009;-87
2023/03/17 05:40:59;;;;;;;;;;;4.00;99.90;;;;;;4990974;28;19949;-86
2023/03/17 05:43:26;;;;;;;;;;;3.90;99.90;;;;;;4981368;28;19938;-88
2023/03/17 05:45:53;;;;;;;;;;;3.90;99.90;;;;;;4981409;28;19926;-87
2023/03/17 05:48:22;;;;;;;;;;;3.90;99.90;;;;;;4981669;28;19977;-89
2023/03/17 05:50:49;;;;;;;;;;;3.90;99.90;;;;;;4973413;28;19945;-87
2023/03/17 05:53:16;;;;;;;;;;;3.90;99.90;;;;;;4981093;28;20403;-87
2023/03/17 05:55:43;;;;;;;;;;;3.90;99.90;;;;;;4976407;28;19926;-87
2023/03/17 05:58:10;;;;;;;;;;;3.90;99.90;;;;;;4979145;28;19930;-87
2023/03/17 06:00:37;;;;;;;;;;;3.90;99.90;;;;;;4980468;28;19930;-88
2023/03/17 06:03:04;;;;;;;;;;;3.90;99.90;;;;;;4976773;28;20301;-87
2023/03/17 06:05:33;;;;;;;;;;;3.90;99.90;;;;;;4975682;28;19925;-88
2023/03/17 06:08:00;;;;;;;;;;;3.90;99.90;;;;;;4965756;28;20329;-80
2023/03/17 06:10:28;;;;;;;;;;;3.80;99.90;;;;;;4980925;28;19926;-87
2023/03/17 06:12:55;;;;;;;;;;;3.80;99.90;;;;;;4980310;28;19926;-87
2023/03/17 06:15:22;;;;;;;;;;;3.80;99.90;;;;;;5000147;28;19934;-87
2023/03/17 06:17:49;;;;;;;;;;;3.80;99.90;;;;;;4992227;28;19934;-88
2023/03/17 06:20:16;;;;;;;;;;;3.80;99.90;;;;;;4993759;28;20349;-88
2023/03/17 06:22:45;;;;;;;;;;;3.80;99.90;;;;;;4974314;28;19954;-88
2023/03/17 06:25:12;;;;;;;;;;;3.80;99.90;;;;;;4978961;28;19961;-87
2023/03/17 06:27:39;;;;;;;;;;;3.80;99.90;;;;;;4986402;28;19964;-86
2023/03/17 06:30:12;;;;;;;;;;;3.80;99.90;;;;;;4972191;28;19926;-86
2023/03/17 06:32:39;;;;;;;;;;;3.70;99.90;;;;;;4976538;28;19940;-87
2023/03/17 06:35:09;;;;;;;;;;;3.80;99.90;;;;;;4996916;28;19950;-87
2023/03/17 06:37:37;;;;;;;;;;;3.70;99.90;;;;;;4960128;28;19927;-87
2023/03/17 06:40:08;;;;;;;;;;;3.80;99.90;;;;;;4988637;28;19955;-88
2023/03/17 06:42:38;;;;;;;;;;;3.70;99.90;;;;;;4991043;28;19950;-87
2023/03/17 06:45:05;;;;;;;;;;;3.70;99.90;;;;;;4988774;28;19927;-90
2023/03/17 06:47:32;;;;;;;;;;;3.80;99.90;;;;;;4992247;28;19931;-87
2023/03/17 06:49:59;;;;;;;;;;;3.80;99.90;;;;;;4983102;28;20267;-87
2023/03/17 06:52:26;;;;;;;;;;;3.70;99.90;;;;;;4972542;28;19927;-88
2023/03/17 06:54:53;;;;;;;;;;;3.80;99.90;;;;;;4988213;28;19926;-86
2023/03/17 06:57:21;;;;;;;;;;;3.70;99.90;;;;;;4992371;28;19930;-87
2023/03/17 06:59:48;;;;;;;;;;;3.70;99.90;;;;;;4997126;28;19926;-86
2023/03/17 07:02:15;;;;;;;;;;;3.70;99.90;;;;;;4977096;28;19950;-87
2023/03/17 07:04:42;;;;;;;;;;;3.70;99.90;;;;;;4997984;28;19966;-87
2023/03/17 07:07:09;;;;;;;;;;;3.70;99.90;;;;;;4996591;28;19996;-88
2023/03/17 07:09:36;;;;;;;;;;;3.70;99.90;;;;;;4975316;28;19963;-87
2023/03/17 07:12:04;;;;;;;;;;;3.70;99.90;;;;;;4994502;28;20570;-87
2023/03/17 07:14:34;;;;;;;;;;;3.70;99.90;;;;;;4979031;28;19941;-87
2023/03/17 07:17:02;;;;;;;;;;;3.70;99.90;;;;;;4984333;28;19926;-86
2023/03/17 07:19:33;;;;;;;;;;;3.70;99.90;;;;;;4994188;28;19926;-88
2023/03/17 07:22:00;;;;;;;;;;;3.60;99.90;;;;;;4979356;28;19937;-87
2023/03/17 07:24:27;;;;;;;;;;;3.60;99.90;;;;;;4997713;28;19936;-87
2023/03/17 07:26:54;;;;;;;;;;;3.60;99.90;;;;;;5009610;28;20431;-88
2023/03/17 07:29:22;;;;;;;;;;;3.60;99.90;;;;;;4994647;28;19950;-88
2023/03/17 07:31:50;;;;;;;;;;;3.60;99.90;;;;;;5002877;28;20492;-87
2023/03/17 07:34:17;;;;;;;;;;;3.60;99.90;;;;;;4998630;28;19945;-90
2023/03/17 07:36:44;;;;;;;;;;;3.60;99.90;;;;;;5009522;28;19936;-90
2023/03/17 07:39:11;;;;;;;;;;;3.60;99.90;;;;;;5007684;28;20123;-91
2023/03/17 07:41:38;;;;;;;;;;;3.60;99.90;;;;;;4991720;28;19946;-91
2023/03/17 07:44:10;;;;;;;;;;;3.60;99.90;;;;;;5007113;28;19926;-90
2023/03/17 07:46:37;;;;;;;;;;;3.60;99.90;;;;;;4986843;28;19937;-89
2023/03/17 07:49:06;;;;;;;;;;;3.60;99.90;;;;;;4998930;28;19949;-92
2023/03/17 07:51:33;;;;;;;;;;;3.60;99.90;;;;;;5006906;28;19933;-91
2023/03/17 07:54:04;;;;;;;;;;;3.60;99.90;;;;;;4990310;28;19922;-91
2023/03/17 07:56:31;;;;;;;;;;;3.60;99.90;;;;;;4999214;28;19941;-89
2023/03/17 07:58:58;;;;;;;;;;;3.60;99.90;;;;;;5002464;28;19926;-90
2023/03/17 08:01:26;;;;;;;;;;;3.60;99.90;;;;;;4995642;28;19940;-91
2023/03/17 08:03:53;;;;;;;;;;;3.60;99.90;;;;;;4994095;28;20057;-91
2023/03/17 08:06:24;;;;;;;;;;;3.60;99.90;;;;;;5008249;28;19914;-91
2023/03/17 08:08:51;;;;;;;;;;;3.60;99.90;;;;;;4980363;28;20767;-91
2023/03/17 08:11:18;;;;;;;;;;;3.60;99.90;;;;;;4988657;28;19922;-90
2023/03/17 08:13:45;;;;;;;;;;;3.60;99.90;;;;;;4983387;28;19919;-92
2023/03/17 08:16:13;;;;;;;;;;;3.60;99.90;;;;;;4992026;28;20438;-90
2023/03/17 08:18:40;;;;;;;;;;;3.60;99.90;;;;;;4986497;28;19994;-89
2023/03/17 08:21:10;;;;;;;;;;;3.60;99.90;;;;;;5006143;28;19924;-90
2023/03/17 08:23:38;;;;;;;;;;;3.60;99.90;;;;;;4986993;28;20021;-90
2023/03/17 08:26:05;;;;;;;;;;;3.60;99.90;;;;;;4981197;28;19926;-89
2023/03/17 08:28:32;;;;;;;;;;;3.60;99.90;;;;;;5000392;28;19935;-90
2023/03/17 08:31:11;;;;;;;;;;;3.60;99.90;;;;;;4980217;28;20041;-91
2023/03/17 08:33:38;;;;;;;;;;;3.70;99.90;;;;;;4995699;28;19966;-93
2023/03/17 08:36:05;;;;;;;;;;;3.70;99.90;;;;;;4982231;28;19926;-90
2023/03/17 08:38:32;;;;;;;;;;;3.70;99.90;;;;;;5003811;28;19922;-90
2023/03/17 08:41:01;;;;;;;;;;;3.70;99.90;;;;;;4997778;28;19969;-90
2023/03/17 08:43:28;;;;;;;;;;;3.70;99.90;;;;;;4998474;28;19965;-90
2023/03/17 08:46:00;;;;;;;;;;;3.70;99.90;;;;;;5001516;28;19954;-90
2023/03/17 08:48:27;;;;;;;;;;;3.70;99.90;;;;;;4996103;28;19930;-88
2023/03/17 08:51:02;;;;;;;;;;;3.70;99.90;;;;;;4978251;28;19965;-89
2023/03/17 08:53:29;;;;;;;;;;;3.70;99.90;;;;;;4984093;28;19926;-90
2023/03/17 08:55:56;;;;;;;;;;;3.70;99.90;;;;;;5002380;28;19950;-89
2023/03/17 08:58:25;;;;;;;;;;;3.80;99.90;;;;;;5007882;28;19961;-89
2023/03/17 09:00:52;;;;;;;;;;;3.80;99.90;;;;;;5006224;28;19926;-90
2023/03/17 09:03:20;;;;;;;;;;;3.80;99.90;;;;;;4986640;28;19930;-89
2023/03/17 09:05:48;;;;;;;;;;;3.80;99.90;;;;;;5009016;28;19922;-92
2023/03/17 09:08:15;;;;;;;;;;;3.80;99.90;;;;;;4998445;28;19985;-89
2023/03/17 09:10:42;;;;;;;;;;;3.80;99.90;;;;;;4990805;28;19933;-90
2023/03/17 09:13:09;;;;;;;;;;;3.90;99.90;;;;;;4983836;28;19950;-90
2023/03/17 09:15:39;;;;;;;;;;;3.90;99.90;;;;;;4983507;28;19927;-90
2023/03/17 09:18:06;;;;;;;;;;;3.90;99.90;;;;;;4984857;28;19946;-90
2023/03/17 09:20:33;;;;;;;;;;;3.90;99.90;;;;;;5006025;28;19930;-89
2023/03/17 09:23:02;;;;;;;;;;;3.90;99.90;;;;;;4984803;28;19936;-90
2023/03/17 09:25:29;;;;;;;;;;;3.90;99.90;;;;;;5000275;28;19926;-89
2023/03/17 09:27:56;;;;;;;;;;;3.90;99.90;;;;;;4979902;28;19926;-89
2023/03/17 09:30:23;;;;;;;;;;;4.00;99.90;;;;;;4987306;28;20052;-90
2023/03/17 09:32:51;;;;;;;;;;;4.00;99.90;;;;;;5003318;28;20002;-89
2023/03/17 09:35:18;;;;;;;;;;;4.00;99.90;;;;;;4998088;28;19926;-89
2023/03/17 09:37:45;;;;;;;;;;;4.00;99.90;;;;;;4995178;28;20002;-91
2023/03/17 09:40:13;;;;;;;;;;;4.00;99.90;;;;;;4998134;28;19933;-91
2023/03/17 09:42:43;;;;;;;;;;;4.10;99.90;;;;;;4978706;28;19926;-90
2023/03/17 09:45:13;;;;;;;;;;;4.10;99.90;;;;;;4986681;28;19933;-90
2023/03/17 09:47:48;;;;;;;;;;;4.10;99.90;;;;;;5001895;28;19926;-89
2023/03/17 09:50:19;;;;;;;;;;;4.10;99.90;;;;;;4999690;28;19940;-89
2023/03/17 09:52:46;;;;;;;;;;;4.10;99.90;;;;;;4998872;28;19932;-92
2023/03/17 09:55:17;;;;;;;;;;;4.20;99.90;;;;;;4994946;28;19933;-92
2023/03/17 09:57:44;;;;;;;;;;;4.20;99.90;;;;;;4983403;28;19963;-90
2023/03/17 10:00:15;;;;;;;;;;;4.20;99.90;;;;;;4982788;28;19931;-92
2023/03/17 10:02:43;;;;;;;;;;;4.20;99.90;;;;;;5001036;28;19949;-92
2023/03/17 10:05:13;;;;;;;;;;;4.30;99.90;;;;;;4980282;28;19934;-90
2023/03/17 10:07:45;;;;;;;;;;;4.30;99.90;;;;;;4987423;28;19911;-91
2023/03/17 10:10:14;;;;;;;;;;;4.30;99.90;;;;;;4983298;28;20578;-92
2023/03/17 10:12:45;;;;;;;;;;;4.30;99.90;;;;;;4981335;28;19926;-89
2023/03/17 10:15:16;;;;;;;;;;;4.30;99.90;;;;;;4998154;28;19934;-91
2023/03/17 10:17:43;;;;;;;;;;;4.40;99.90;;;;;;5000089;28;19934;-92
2023/03/17 10:20:14;;;;;;;;;;;4.40;99.90;;;;;;4974440;28;19930;-92
2023/03/17 10:22:45;;;;;;;;;;;4.40;99.90;;;;;;4986399;28;19933;-89
2023/03/17 10:25:14;;;;;;;;;;;4.50;99.90;;;;;;5001089;28;20001;-90
2023/03/17 10:27:42;;;;;;;;;;;4.60;99.90;;;;;;4995005;28;19986;-90
2023/03/17 10:30:14;;;;;;;;;;;4.60;99.90;;;;;;4995000;28;19937;-89
2023/03/17 10:32:41;;;;;;;;;;;4.60;99.90;;;;;;4985596;28;19942;-90
2023/03/17 10:35:09;;;;;;;;;;;4.70;99.90;;;;;;4993322;28;19962;-92
2023/03/17 10:37:36;;;;;;;;;;;4.70;99.90;;;;;;4999167;28;19957;-91
2023/03/17 10:40:09;;;;;;;;;;;4.70;99.90;;;;;;4972819;28;20411;-88
2023/03/17 10:42:45;;;;;;;;;;;4.70;99.90;;;;;;4981773;28;19925;-89
2023/03/17 10:45:15;;;;;;;;;;;4.80;99.90;;;;;;4973452;28;19930;-89
2023/03/17 10:47:44;;;;;;;;;;;4.80;99.90;;;;;;4982161;28;20299;-90
2023/03/17 10:50:20;;;;;;;;;;;4.90;99.90;;;;;;4987777;28;19934;-93
2023/03/17 10:52:47;;;;;;;;;;;4.90;99.90;;;;;;4980444;28;19934;-90
2023/03/17 10:55:19;;;;;;;;;;;4.90;99.90;;;;;;4983349;28;19933;-91
2023/03/17 10:57:51;;;;;;;;;;;4.90;99.90;;;;;;4988697;28;19926;-91
2023/03/17 11:00:22;;;;;;;;;;;4.90;99.90;;;;;;4982444;28;19969;-91
2023/03/17 11:02:52;;;;;;;;;;;4.90;99.90;;;;;;4971364;28;20424;-91
2023/03/17 11:05:20;;;;;;;;;;;4.90;99.90;;;;;;4972927;28;19930;-90
2023/03/17 11:07:47;;;;;;;;;;;5.00;99.90;;;;;;4992867;28;19936;-90
2023/03/17 11:10:17;;;;;;;;;;;4.90;99.90;;;;;;4971942;28;19934;-89
2023/03/17 11:12:44;;;;;;;;;;;5.00;99.90;;;;;;4973184;28;20457;-90
2023/03/17 11:15:14;;;;;;;;;;;5.10;99.90;;;;;;4973932;28;19934;-93
2023/03/17 11:17:44;;;;;;;;;;;5.10;99.90;;;;;;4985671;28;19981;-90
2023/03/17 11:20:26;;;;;;;;;;;5.10;99.90;;;;;;4981640;28;20423;-92
2023/03/17 11:22:56;;;;;;;;;;;5.20;99.90;;;;;;4983977;28;19926;-92
2023/03/17 11:25:26;;;;;;;;;;;5.20;99.90;;;;;;4984091;28;20492;-83
2023/03/17 11:27:54;;;;;;;;;;;5.30;99.90;;;;;;4967070;28;19930;-89
2023/03/17 11:30:28;;;;;;;;;;;5.30;99.90;;;;;;4977903;28;20020;-90
2023/03/17 11:32:57;;;;;;;;;;;5.30;99.90;;;;;;4966279;28;20365;-89
2023/03/17 11:35:30;;;;;;;;;;;5.30;99.90;;;;;;4970629;28;19972;-89
2023/03/17 11:38:03;;;;;;;;;;;5.40;99.90;;;;;;4978576;28;20798;-88
2023/03/17 11:40:34;;;;;;;;;;;5.50;99.90;;;;;;4980681;28;19985;-90
2023/03/17 11:43:10;;;;;;;;;;;5.50;99.90;;;;;;4978283;28;19926;-89
2023/03/17 11:45:41;;;;;;;;;;;5.50;99.90;;;;;;4966903;28;19930;-90
2023/03/17 11:48:21;;;;;;;;;;;5.60;99.90;;;;;;4971539;28;20300;-89
2023/03/17 11:50:52;;;;;;;;;;;5.70;99.90;;;;;;4974500;28;20344;-91
2023/03/17 11:53:26;;;;;;;;;;;5.70;99.90;;;;;;4966983;28;19954;-91
2023/03/17 11:55:56;;;;;;;;;;;5.70;99.90;;;;;;4977908;28;20440;-90
2023/03/17 11:58:27;;;;;;;;;;;5.70;99.90;;;;;;4970723;28;19930;-91
2023/03/17 12:00:56;;;;;;;;;;;5.70;99.90;;;;;;4966687;28;19926;-92
2023/03/17 12:03:28;;;;;;;;;;;5.90;99.90;;;;;;4983588;28;19926;-90
2023/03/17 12:05:58;;;;;;;;;;;5.90;99.90;;;;;;4979542;28;20036;-90
2023/03/17 12:08:29;;;;;;;;;;;5.90;99.90;;;;;;4968363;28;19989;-90
2023/03/17 12:10:59;;;;;;;;;;;6.00;99.90;;;;;;4963333;28;19930;-90
2023/03/17 12:13:29;;;;;;;;;;;6.10;99.90;;;;;;4963816;28;20025;-91
2023/03/17 12:16:07;;;;;;;;;;;6.00;99.90;;;;;;4977898;28;19981;-93
2023/03/17 12:18:35;;;;;;;;;;;6.00;99.90;;;;;;4974439;28;19930;-90
2023/03/17 12:21:06;;;;;;;;;;;6.20;99.90;;;;;;4976928;28;19934;-90
2023/03/17 12:23:37;;;;;;;;;;;6.30;99.90;;;;;;4965552;28;20474;-90
2023/03/17 12:26:09;;;;;;;;;;;6.30;99.90;;;;;;4989788;28;19970;-90
2023/03/17 12:28:41;;;;;;;;;;;6.30;99.90;;;;;;4971834;28;19927;-90
2023/03/17 12:31:11;;;;;;;;;;;6.30;99.90;;;;;;4972754;28;19926;-91
2023/03/17 12:33:42;;;;;;;;;;;6.30;99.90;;;;;;4983869;28;19927;-90
2023/03/17 12:36:11;;;;;;;;;;;6.40;99.90;;;;;;4969688;28;19945;-91
2023/03/17 12:38:40;;;;;;;;;;;6.40;99.90;;;;;;4974309;28;19934;-92
2023/03/17 12:41:16;;;;;;;;;;;6.40;99.90;;;;;;4966195;28;20040;-92
2023/03/17 12:43:57;;;;;;;;;;;6.40;99.90;;;;;;4972436;28;19930;-94
2023/03/17 12:46:31;;;;;;;;;;;6.40;99.90;;;;;;4972724;28;19997;-90
2023/03/17 12:49:13;;;;;;;;;;;6.40;99.90;;;;;;4967567;28;20463;-91
2023/03/17 12:51:56;;;;;;;;;;;6.50;99.90;;;;;;4967778;28;19934;-90
2023/03/17 12:54:26;;;;;;;;;;;6.60;99.90;;;;;;4972784;28;20356;-90
2023/03/17 12:57:00;;;;;;;;;;;6.70;99.90;;;;;;4987419;28;20404;-88
2023/03/17 12:59:29;;;;;;;;;;;7.00;99.90;;;;;;4974432;28;20049;-90
2023/03/17 13:01:57;;;;;;;;;;;7.80;99.90;;;;;;4988593;28;19927;-88
2023/03/17 13:04:25;;;;;;;;;;;8.30;99.90;;;;;;4972098;28;19926;-89
2023/03/17 13:06:59;;;;;;;;;;;8.50;99.90;;;;;;4990440;28;20020;-90
2023/03/17 13:09:44;;;;;;;;;;;8.70;99.90;;;;;;4968018;28;19973;-88
2023/03/17 13:12:29;;;;;;;;;;;8.80;99.90;;;;;;4974100;28;20432;-87
2023/03/17 13:14:58;;;;;;;;;;;8.80;99.90;;;;;;4974954;28;19926;-87
2023/03/17 13:17:32;;;;;;;;;;;9.00;99.90;;;;;;4972425;28;19981;-87
2023/03/17 13:20:14;;;;;;;;;;;9.20;99.90;;;;;;4976421;28;19930;-87
2023/03/17 13:22:41;;;;;;;;;;;9.40;99.90;;;;;;4984131;28;20334;-87
2023/03/17 13:25:13;;;;;;;;;;;9.50;99.90;;;;;;4964016;28;20147;-87
2023/03/17 13:27:48;;;;;;;;;;;9.50;99.90;;;;;;4972456;28;19937;-87
2023/03/17 13:30:45;;;;;;;;;;;9.60;99.90;;;;;;4966469;28;20333;-88
2023/03/17 13:33:23;;;;;;;;;;;9.60;99.90;;;;;;4933000;29;20265;-88
2023/03/17 13:36:10;;;;;;;;;;;9.70;99.90;;;;;;4958969;28;19945;-87
2023/03/17 13:38:41;;;;;;;;;;;9.90;99.90;;;;;;4972707;28;19927;-89
2023/03/17 13:41:14;;;;;;;;;;;10.10;99.90;;;;;;4968948;28;19935;-88
2023/03/17 13:43:49;;;;;;;;;;;10.10;99.90;;;;;;4981282;28;19940;-88
2023/03/17 13:46:21;;;;;;;;;;;10.10;99.90;;;;;;4962646;28;19981;-88
2023/03/17 13:48:50;;;;;;;;;;;10.10;99.90;;;;;;4968763;28;19925;-87
2023/03/17 13:51:21;;;;;;;;;;;10.30;99.90;;;;;;4967939;28;20305;-88
2023/03/17 13:53:51;;;;;;;;;;;10.40;99.90;;;;;;4965037;28;19926;-87
2023/03/17 13:56:22;;;;;;;;;;;10.40;99.90;;;;;;4970086;28;19933;-88
2023/03/17 13:59:07;;;;;;;;;;;10.50;99.90;;;;;;4976718;28;20405;-87
2023/03/17 14:01:37;;;;;;;;;;;10.60;99.90;;;;;;4964149;28;20404;-87
2023/03/17 14:04:07;;;;;;;;;;;10.70;99.90;;;;;;4965165;28;20036;-88
2023/03/17 14:06:36;;;;;;;;;;;10.70;99.90;;;;;;4967431;28;19941;-89
2023/03/17 14:09:08;;;;;;;;;;;10.70;99.90;;;;;;4968975;28;20005;-88
2023/03/17 14:11:35;;;;;;;;;;;10.80;99.90;;;;;;4963162;28;19926;-87
2023/03/17 14:14:20;;;;;;;;;;;10.90;99.90;;;;;;4967836;28;19962;-88
2023/03/17 14:16:52;;;;;;;;;;;11.00;99.90;;;;;;4975620;28;19932;-88
2023/03/17 14:19:22;;;;;;;;;;;11.00;99.90;;;;;;4964387;28;19938;-88
2023/03/17 14:21:49;;;;;;;;;;;11.00;99.90;;;;;;4963877;28;20463;-88
2023/03/17 14:24:21;;;;;;;;;;;11.00;99.90;;;;;;4964252;28;19938;-88
2023/03/17 14:26:49;;;;;;;;;;;11.10;99.90;;;;;;4964198;28;19926;-88
2023/03/17 14:29:17;;;;;;;;;;;11.10;99.90;;;;;;4971518;28;19930;-88
2023/03/17 14:31:44;;;;;;;;;;;;;;;;;;4965912;28;20388;-89
2023/03/17 14:34:13;;;;;;;;;;;11.30;99.90;;;;;;4981850;28;19984;-89
2023/03/17 14:36:41;;;;;;;;;;;11.20;99.90;;;;;;4967766;28;19926;-87
2023/03/17 14:39:20;;;;;;;;;;;11.30;99.90;;;;;;4958569;28;19926;-88